Terminal Aerodrome Forecast
Issued by NWS St Louis, MO

Home | Current Version | Previous Version | Text Only | Print | Product List | Glossary On
Versions: 1 2 3 4 5 6 7 8 9 10 11 12 13 14 15 16 17 18 19 20 21 22 23 24 25
772
FTUS43 KLSX 232039 AAA
TAFCOU
TAF AMD
KCOU 232039Z 2321/2418 16010KT P6SM VCSH SCT006 OVC011
      TEMPO 2321/2324 BKN006
     FM240300 16008KT P6SM VCTS SCT050CB BKN090
     FM240600 18008KT P6SM SCT050 BKN080
     FM241600 22012KT P6SM SCT050 BKN250=

USA.gov is the U.S. government's official web portal to all federal, state and local government web resources and services.